createdAt,value
2022-10-05T00:01:52.279Z,13.70
2022-10-05T00:06:51.619Z,13.70
2022-10-05T00:11:50.372Z,13.70
2022-10-05T00:16:49.882Z,13.80
2022-10-05T00:21:49.375Z,13.90
2022-10-05T00:26:52.886Z,13.80
2022-10-05T00:31:50.682Z,13.80
2022-10-05T00:36:49.767Z,13.80
2022-10-05T00:41:49.603Z,13.70
2022-10-05T00:46:48.717Z,13.70
2022-10-05T00:51:47.520Z,13.70
2022-10-05T00:56:46.711Z,13.80
2022-10-05T01:01:45.637Z,13.90
2022-10-05T01:06:44.700Z,13.90
2022-10-05T01:11:43.652Z,13.90
2022-10-05T01:16:42.545Z,13.90
2022-10-05T01:21:41.621Z,13.90
2022-10-05T01:26:40.624Z,13.80
2022-10-05T01:31:39.466Z,13.80
2022-10-05T01:36:38.685Z,13.80
2022-10-05T01:41:37.434Z,13.80
2022-10-05T01:46:36.433Z,13.80
2022-10-05T01:51:36.936Z,13.70
2022-10-05T01:56:35.467Z,13.60
2022-10-05T02:01:34.508Z,13.60
2022-10-05T02:06:35.536Z,13.60
2022-10-05T02:11:34.747Z,13.60
2022-10-05T02:16:33.668Z,13.60
2022-10-05T02:21:33.168Z,13.60
2022-10-05T02:26:32.763Z,13.60
2022-10-05T02:31:32.870Z,13.60
2022-10-05T02:36:31.547Z,13.60
2022-10-05T02:41:31.864Z,13.60
2022-10-05T02:46:30.967Z,13.60
2022-10-05T02:51:30.822Z,13.50
2022-10-05T02:56:30.242Z,13.50
2022-10-05T03:01:30.346Z,13.50
2022-10-05T03:06:30.089Z,13.40
2022-10-05T03:11:28.959Z,13.40
2022-10-05T03:16:27.910Z,13.50
2022-10-05T03:21:27.708Z,13.60
2022-10-05T03:26:26.786Z,13.70
2022-10-05T03:31:25.631Z,13.70
2022-10-05T03:36:25.422Z,13.80
2022-10-05T03:41:24.537Z,13.80
2022-10-05T03:46:23.720Z,13.80
2022-10-05T03:51:22.879Z,13.80
2022-10-05T03:56:22.351Z,13.80
2022-10-05T04:01:22.395Z,13.80
2022-10-05T04:06:21.654Z,13.70
2022-10-05T04:11:20.941Z,13.70
2022-10-05T04:16:20.112Z,13.70
2022-10-05T04:21:23.658Z,13.60
2022-10-05T04:26:22.382Z,13.60
2022-10-05T04:31:21.868Z,13.70
2022-10-05T04:36:20.510Z,13.70
2022-10-05T04:41:19.941Z,13.80
2022-10-05T04:46:19.414Z,13.80
2022-10-05T04:51:18.964Z,13.80
2022-10-05T04:56:17.800Z,13.90
2022-10-05T05:01:16.856Z,13.90
2022-10-05T05:06:17.974Z,13.90
2022-10-05T05:11:19.979Z,13.90
2022-10-05T05:16:18.062Z,13.90
2022-10-05T05:21:16.831Z,13.90
2022-10-05T05:26:15.969Z,13.90
2022-10-05T05:31:14.736Z,13.90
2022-10-05T05:36:13.858Z,14.00
2022-10-05T05:41:14.486Z,14.00
2022-10-05T05:46:14.651Z,14.00
2022-10-05T05:51:13.909Z,14.00
2022-10-05T05:56:12.670Z,14.10
2022-10-05T06:01:30.739Z,14.10
2022-10-05T06:06:13.149Z,14.10
2022-10-05T06:11:11.755Z,14.20
2022-10-05T06:16:10.831Z,14.20
2022-10-05T06:21:09.783Z,14.30
2022-10-05T06:26:10.818Z,14.40
2022-10-05T06:31:11.573Z,14.40
2022-10-05T06:36:10.719Z,14.50
2022-10-05T06:41:09.870Z,14.70
2022-10-05T06:46:28.671Z,14.80
2022-10-05T06:51:32.340Z,14.90
2022-10-05T06:56:32.338Z,15.00
2022-10-05T07:01:31.835Z,15.10
2022-10-05T07:06:30.978Z,15.20
2022-10-05T07:11:30.095Z,15.30
2022-10-05T07:16:29.684Z,15.50
2022-10-05T07:21:29.254Z,15.60
2022-10-05T07:26:28.875Z,15.70
2022-10-05T07:31:27.887Z,15.80
2022-10-05T07:36:45.209Z,15.90
2022-10-05T07:41:47.443Z,16.00
2022-10-05T07:46:47.117Z,16.00
2022-10-05T07:51:47.631Z,16.10
2022-10-05T07:56:47.525Z,16.20
2022-10-05T08:01:46.970Z,16.20
2022-10-05T08:06:45.993Z,16.30
2022-10-05T08:11:46.211Z,16.30
2022-10-05T08:16:46.179Z,16.40
2022-10-05T08:21:45.140Z,16.40
2022-10-05T08:26:44.636Z,16.60
2022-10-05T08:31:44.000Z,16.90
2022-10-05T08:36:42.972Z,17.20
2022-10-05T08:41:41.791Z,17.60
2022-10-05T08:46:40.658Z,17.90
2022-10-05T08:51:39.550Z,18.30
2022-10-05T08:56:38.847Z,18.50
2022-10-05T09:01:38.001Z,18.70
2022-10-05T09:06:37.721Z,18.90
2022-10-05T09:11:37.001Z,19.00
2022-10-05T09:16:35.857Z,19.20
2022-10-05T09:21:34.819Z,19.30
2022-10-05T09:26:33.868Z,19.30
2022-10-05T09:31:34.058Z,19.30
2022-10-05T09:36:33.697Z,19.30
2022-10-05T09:41:32.851Z,19.30
2022-10-05T09:46:31.949Z,19.50
2022-10-05T09:51:30.727Z,19.50
2022-10-05T09:56:29.743Z,19.80
2022-10-05T10:01:33.488Z,19.90
2022-10-05T10:06:29.737Z,19.90
2022-10-05T10:11:28.740Z,19.80
2022-10-05T10:16:27.737Z,19.80
2022-10-05T10:21:28.732Z,19.80
2022-10-05T10:26:29.698Z,20.00
2022-10-05T10:31:28.907Z,20.40
2022-10-05T10:36:27.884Z,20.60
2022-10-05T10:41:26.890Z,20.80
2022-10-05T10:46:25.861Z,21.00
2022-10-05T10:51:25.997Z,21.10
2022-10-05T10:56:24.744Z,21.10
2022-10-05T11:01:23.801Z,21.00
2022-10-05T11:06:22.668Z,20.90
2022-10-05T11:11:22.306Z,21.00
2022-10-05T11:16:20.752Z,20.70
2022-10-05T11:21:19.812Z,20.30
2022-10-05T11:26:18.768Z,20.20
2022-10-05T11:31:17.856Z,20.10
2022-10-05T11:36:16.771Z,20.00
2022-10-05T11:41:15.993Z,19.90
2022-10-05T11:46:14.822Z,20.00
2022-10-05T11:51:13.856Z,20.00
2022-10-05T11:56:12.996Z,20.00
2022-10-05T12:01:11.898Z,20.00
2022-10-05T12:06:10.892Z,20.20
2022-10-05T12:11:09.912Z,20.30
2022-10-05T12:16:08.775Z,20.40
2022-10-05T12:21:08.424Z,20.50
2022-10-05T12:26:08.804Z,20.50
2022-10-05T12:31:07.886Z,20.70
2022-10-05T12:36:06.916Z,21.00
2022-10-05T12:41:05.709Z,21.10
2022-10-05T12:46:04.993Z,21.30
2022-10-05T12:51:03.752Z,21.40
2022-10-05T12:56:02.832Z,21.60
2022-10-05T13:01:01.948Z,21.70
2022-10-05T13:06:02.735Z,21.80
2022-10-05T13:11:02.308Z,21.90
2022-10-05T13:16:03.102Z,22.00
2022-10-05T13:21:03.758Z,22.20
2022-10-05T13:26:02.857Z,22.40
2022-10-05T13:31:02.234Z,22.60
2022-10-05T13:36:00.943Z,22.50
2022-10-05T13:40:59.823Z,22.70
2022-10-05T13:46:00.616Z,22.80
2022-10-05T13:50:59.866Z,22.90
2022-10-05T13:55:59.096Z,22.90
2022-10-05T14:00:57.779Z,23.00
2022-10-05T14:05:57.087Z,23.00
2022-10-05T14:10:57.106Z,23.00
2022-10-05T14:15:55.849Z,23.00
2022-10-05T14:20:54.851Z,22.90
2022-10-05T14:25:54.127Z,22.90
2022-10-05T14:30:56.898Z,22.90
2022-10-05T14:35:54.101Z,22.90
2022-10-05T14:40:52.928Z,22.80
2022-10-05T14:45:51.972Z,22.70
2022-10-05T14:50:50.868Z,22.60
2022-10-05T14:55:49.941Z,22.60
2022-10-05T15:00:49.024Z,22.60
2022-10-05T15:05:47.815Z,22.50
2022-10-05T15:10:48.881Z,22.40
2022-10-05T15:15:48.115Z,22.20
2022-10-05T15:20:47.198Z,22.10
2022-10-05T15:25:46.088Z,22.00
2022-10-05T15:30:45.136Z,21.90
2022-10-05T15:35:44.103Z,21.90
2022-10-05T15:40:43.132Z,21.90
2022-10-05T15:45:42.316Z,21.90
2022-10-05T15:50:41.898Z,21.90
2022-10-05T15:55:41.023Z,21.80
2022-10-05T16:00:39.983Z,21.70
2022-10-05T16:05:57.310Z,21.60
2022-10-05T16:10:56.022Z,21.60
2022-10-05T16:15:54.943Z,21.50
2022-10-05T16:20:54.047Z,21.50
2022-10-05T16:25:53.066Z,21.40
2022-10-05T16:30:52.102Z,21.40
2022-10-05T16:35:52.237Z,21.20
2022-10-05T16:40:50.916Z,21.10
2022-10-05T16:45:51.434Z,21.00
2022-10-05T16:50:50.061Z,20.90
2022-10-05T16:55:48.965Z,20.80
2022-10-05T17:00:48.480Z,20.70
2022-10-05T17:05:47.234Z,20.60
2022-10-05T17:10:46.000Z,20.60
2022-10-05T17:15:46.948Z,20.40
2022-10-05T17:20:45.902Z,20.30
2022-10-05T17:25:45.085Z,20.20
2022-10-05T17:30:43.926Z,20.00
2022-10-05T17:35:43.254Z,19.90
2022-10-05T17:40:42.139Z,19.70
2022-10-05T17:45:40.879Z,19.60
2022-10-05T17:50:58.163Z,19.40
2022-10-05T17:55:57.211Z,19.30
2022-10-05T18:00:56.098Z,19.20
2022-10-05T18:05:55.015Z,19.30
2022-10-05T18:10:54.221Z,19.20
2022-10-05T18:15:53.033Z,19.20
2022-10-05T18:20:51.970Z,19.10
2022-10-05T18:25:51.040Z,19.10
2022-10-05T18:30:50.165Z,19.20
2022-10-05T18:35:49.046Z,19.20
2022-10-05T18:40:48.052Z,19.20
2022-10-05T18:45:47.759Z,19.30
2022-10-05T18:50:47.515Z,19.30
2022-10-05T18:55:46.137Z,19.30
2022-10-05T19:00:45.148Z,19.30
2022-10-05T19:05:47.901Z,19.30
2022-10-05T19:10:45.140Z,19.30
2022-10-05T19:15:44.345Z,19.30
2022-10-05T19:20:43.238Z,19.30
2022-10-05T19:25:42.940Z,19.20
2022-10-05T19:30:42.189Z,19.30
2022-10-05T19:35:41.116Z,19.20
2022-10-05T19:40:40.116Z,19.10
2022-10-05T19:45:39.032Z,19.10
2022-10-05T19:50:39.449Z,19.10
2022-10-05T19:55:39.191Z,19.10
2022-10-05T20:00:38.202Z,19.10
2022-10-05T20:05:37.135Z,19.10
2022-10-05T20:10:36.544Z,19.10
2022-10-05T20:15:53.277Z,19.10
2022-10-05T20:20:52.293Z,19.10
2022-10-05T20:26:10.571Z,19.10
2022-10-05T20:31:09.185Z,19.10
2022-10-05T20:36:08.159Z,19.10
2022-10-05T20:41:07.207Z,19.20
2022-10-05T20:46:07.128Z,19.10
2022-10-05T20:51:06.204Z,19.10
2022-10-05T20:56:05.228Z,19.10
2022-10-05T21:01:18.151Z,19.10
2022-10-05T21:06:17.936Z,19.10
2022-10-05T21:11:17.096Z,19.10
2022-10-05T21:16:16.329Z,19.20
2022-10-05T21:21:16.640Z,19.20
2022-10-05T21:26:15.341Z,19.30
2022-10-05T21:31:14.078Z,19.30
2022-10-05T21:36:14.189Z,19.40
2022-10-05T21:41:13.101Z,19.40
2022-10-05T21:46:12.193Z,19.40
2022-10-05T21:51:12.937Z,19.40
2022-10-05T21:56:12.080Z,19.40
2022-10-05T22:01:11.183Z,19.30
2022-10-05T22:06:10.232Z,19.30
2022-10-05T22:11:09.125Z,19.30
2022-10-05T22:16:08.323Z,18.90
2022-10-05T22:21:07.252Z,18.10
2022-10-05T22:26:06.078Z,17.40
2022-10-05T22:31:05.269Z,16.90
2022-10-05T22:36:04.291Z,16.50
2022-10-05T22:41:03.294Z,16.20
2022-10-05T22:46:02.666Z,16.20
2022-10-05T22:51:01.260Z,16.20
2022-10-05T22:56:00.314Z,16.30
2022-10-05T23:00:59.227Z,16.30
2022-10-05T23:05:58.387Z,16.30
2022-10-05T23:10:57.373Z,16.40
2022-10-05T23:15:56.376Z,16.50
2022-10-05T23:20:55.185Z,16.50
2022-10-05T23:25:54.199Z,16.60
2022-10-05T23:30:53.277Z,16.70
2022-10-05T23:35:52.221Z,16.80
2022-10-05T23:40:51.108Z,16.20
2022-10-05T23:45:50.160Z,14.80
2022-10-05T23:50:49.238Z,14.00
2022-10-05T23:55:48.265Z,13.70
